Terminal Aerodrome Forecast
Issued by NWS

Home | Current Version | Previous Version | Text Only | Print | Product List | Glossary On
Versions: 1 2 3 4 5 6 7 8 9 10 11 12 13 14 15 16 17 18 19
000
FTUS44 KMAF 212300
TAFINK
TAF
KINK 212320Z 2200/2224 13009KT P6SM -SHRA SCT030 OVC050
     FM221200 12008KT P6SM BKN025
     FM221700 14007KT P6SM BKN040=

USA.gov is the U.S. government's official web portal to all federal, state and local government web resources and services.